Fort Riley, Kansas
Current Conditions -  °F | °C
As of 3:58 PM on Wednesday 28 Jan 2015 (Local Time) from KFRI Reporting Station
Clear Clear  
Wind Chill: 69°   Ceiling: Unl
Heat Index: 69°   Visibility: 10mi
Dew Point: 35°   Wind: 15mph
Humidity: 28%   Direction: 270°W
Pressure: 29.74"   Gusts: NA
Location:  39.07°N, 96.8°W
Report Text: KFRI 282158Z AUTO 27013KT 10SM CLR 20/01 A2974 RMK AO2 SLP068 T02030014
Loading
Personal Weather Stations






























Interactive Weather Map New forecast layout! Learn more

10-Day Weather Forecast

Advertisements
Track Severe Weather on mobile